sensor_id;sensor_type;location;lat;lon;timestamp;P1;durP1;ratioP1;P2;durP2;ratioP2
6121;SDS011;3091;51.506;7.672;2023-05-07T00:01:16;34.77;;;32.47;;
6121;SDS011;3091;51.506;7.672;2023-05-07T00:03:42;35.50;;;33.20;;
6121;SDS011;3091;51.506;7.672;2023-05-07T00:06:08;34.00;;;31.80;;
6121;SDS011;3091;51.506;7.672;2023-05-07T00:08:37;32.70;;;30.60;;
6121;SDS011;3091;51.506;7.672;2023-05-07T00:11:03;31.90;;;29.80;;
6121;SDS011;3091;51.506;7.672;2023-05-07T00:13:32;32.30;;;30.10;;
6121;SDS011;3091;51.506;7.672;2023-05-07T00:16:00;29.20;;;27.40;;
6121;SDS011;3091;51.506;7.672;2023-05-07T00:18:26;28.53;;;26.73;;
6121;SDS011;3091;51.506;7.672;2023-05-07T00:20:52;27.23;;;25.53;;
6121;SDS011;3091;51.506;7.672;2023-05-07T00:23:19;25.70;;;24.10;;
6121;SDS011;3091;51.506;7.672;2023-05-07T00:25:45;25.67;;;24.07;;
6121;SDS011;3091;51.506;7.672;2023-05-07T00:28:11;23.63;;;22.27;;
6121;SDS011;3091;51.506;7.672;2023-05-07T00:30:36;21.93;;;20.73;;
6121;SDS011;3091;51.506;7.672;2023-05-07T00:33:03;21.87;;;20.50;;
6121;SDS011;3091;51.506;7.672;2023-05-07T00:35:29;19.00;;;18.00;;
6121;SDS011;3091;51.506;7.672;2023-05-07T00:37:55;19.00;;;18.00;;
6121;SDS011;3091;51.506;7.672;2023-05-07T00:40:21;18.30;;;17.30;;
6121;SDS011;3091;51.506;7.672;2023-05-07T00:42:47;17.80;;;16.90;;
6121;SDS011;3091;51.506;7.672;2023-05-07T00:45:14;17.73;;;16.83;;
6121;SDS011;3091;51.506;7.672;2023-05-07T00:47:40;18.30;;;17.30;;
6121;SDS011;3091;51.506;7.672;2023-05-07T00:50:15;17.00;;;16.10;;
6121;SDS011;3091;51.506;7.672;2023-05-07T00:52:42;17.70;;;16.80;;
6121;SDS011;3091;51.506;7.672;2023-05-07T00:55:08;17.40;;;16.50;;
6121;SDS011;3091;51.506;7.672;2023-05-07T00:57:38;17.67;;;16.77;;
6121;SDS011;3091;51.506;7.672;2023-05-07T01:00:05;17.70;;;16.80;;
6121;SDS011;3091;51.506;7.672;2023-05-07T01:02:33;18.43;;;17.43;;
6121;SDS011;3091;51.506;7.672;2023-05-07T01:04:59;18.10;;;17.20;;
6121;SDS011;3091;51.506;7.672;2023-05-07T01:07:26;17.70;;;16.80;;
6121;SDS011;3091;51.506;7.672;2023-05-07T01:09:52;18.20;;;17.30;;
6121;SDS011;3091;51.506;7.672;2023-05-07T01:12:19;18.20;;;17.20;;
6121;SDS011;3091;51.506;7.672;2023-05-07T01:14:47;19.47;;;18.27;;
6121;SDS011;3091;51.506;7.672;2023-05-07T01:17:15;18.60;;;17.60;;
6121;SDS011;3091;51.506;7.672;2023-05-07T01:19:41;18.70;;;17.70;;
6121;SDS011;3091;51.506;7.672;2023-05-07T01:22:08;18.70;;;17.70;;
6121;SDS011;3091;51.506;7.672;2023-05-07T01:24:36;18.60;;;17.60;;
6121;SDS011;3091;51.506;7.672;2023-05-07T01:27:04;17.90;;;17.00;;
6121;SDS011;3091;51.506;7.672;2023-05-07T01:29:30;17.80;;;16.90;;
6121;SDS011;3091;51.506;7.672;2023-05-07T01:31:56;17.80;;;16.90;;
6121;SDS011;3091;51.506;7.672;2023-05-07T01:34:23;17.40;;;16.50;;
6121;SDS011;3091;51.506;7.672;2023-05-07T01:36:50;17.20;;;16.30;;
6121;SDS011;3091;51.506;7.672;2023-05-07T01:39:17;17.10;;;16.20;;
6121;SDS011;3091;51.506;7.672;2023-05-07T01:41:43;17.20;;;16.30;;
6121;SDS011;3091;51.506;7.672;2023-05-07T01:44:10;17.50;;;16.60;;
6121;SDS011;3091;51.506;7.672;2023-05-07T01:46:40;17.30;;;16.40;;
6121;SDS011;3091;51.506;7.672;2023-05-07T01:49:06;18.27;;;17.27;;
6121;SDS011;3091;51.506;7.672;2023-05-07T01:51:32;19.17;;;18.07;;
6121;SDS011;3091;51.506;7.672;2023-05-07T01:53:59;19.43;;;18.33;;
6121;SDS011;3091;51.506;7.672;2023-05-07T01:56:25;17.50;;;16.60;;
6121;SDS011;3091;51.506;7.672;2023-05-07T01:58:51;17.50;;;16.60;;
6121;SDS011;3091;51.506;7.672;2023-05-07T02:01:17;19.00;;;17.90;;
6121;SDS011;3091;51.506;7.672;2023-05-07T02:03:44;18.00;;;17.10;;
6121;SDS011;3091;51.506;7.672;2023-05-07T02:06:10;17.50;;;16.60;;
6121;SDS011;3091;51.506;7.672;2023-05-07T02:08:36;18.00;;;17.10;;
6121;SDS011;3091;51.506;7.672;2023-05-07T02:11:02;17.60;;;16.70;;
6121;SDS011;3091;51.506;7.672;2023-05-07T02:13:29;17.30;;;16.40;;
6121;SDS011;3091;51.506;7.672;2023-05-07T02:15:56;17.47;;;16.57;;
6121;SDS011;3091;51.506;7.672;2023-05-07T02:18:22;17.20;;;16.40;;
6121;SDS011;3091;51.506;7.672;2023-05-07T02:20:48;16.70;;;15.90;;
6121;SDS011;3091;51.506;7.672;2023-05-07T02:23:14;16.70;;;15.90;;
6121;SDS011;3091;51.506;7.672;2023-05-07T02:25:39;17.00;;;16.20;;
6121;SDS011;3091;51.506;7.672;2023-05-07T02:28:06;16.73;;;15.93;;
6121;SDS011;3091;51.506;7.672;2023-05-07T02:30:35;17.03;;;16.17;;
6121;SDS011;3091;51.506;7.672;2023-05-07T02:33:01;17.37;;;16.47;;
6121;SDS011;3091;51.506;7.672;2023-05-07T02:35:27;16.80;;;16.00;;
6121;SDS011;3091;51.506;7.672;2023-05-07T02:37:53;16.63;;;15.83;;
6121;SDS011;3091;51.506;7.672;2023-05-07T02:40:19;16.50;;;15.70;;
6121;SDS011;3091;51.506;7.672;2023-05-07T02:42:45;16.40;;;15.60;;
6121;SDS011;3091;51.506;7.672;2023-05-07T02:45:13;17.00;;;16.20;;
6121;SDS011;3091;51.506;7.672;2023-05-07T02:47:39;16.30;;;15.50;;
6121;SDS011;3091;51.506;7.672;2023-05-07T02:50:06;16.53;;;15.73;;
6121;SDS011;3091;51.506;7.672;2023-05-07T02:52:32;16.17;;;15.43;;
6121;SDS011;3091;51.506;7.672;2023-05-07T02:54:58;15.70;;;15.00;;
6121;SDS011;3091;51.506;7.672;2023-05-07T02:57:24;15.87;;;15.17;;
6121;SDS011;3091;51.506;7.672;2023-05-07T02:59:50;15.00;;;14.30;;
6121;SDS011;3091;51.506;7.672;2023-05-07T03:02:16;14.93;;;14.23;;
6121;SDS011;3091;51.506;7.672;2023-05-07T03:04:42;15.30;;;14.60;;
6121;SDS011;3091;51.506;7.672;2023-05-07T03:07:08;14.90;;;14.30;;
6121;SDS011;3091;51.506;7.672;2023-05-07T03:09:34;15.10;;;14.50;;
6121;SDS011;3091;51.506;7.672;2023-05-07T03:12:00;15.00;;;14.40;;
6121;SDS011;3091;51.506;7.672;2023-05-07T03:14:26;14.80;;;14.20;;
6121;SDS011;3091;51.506;7.672;2023-05-07T03:16:52;15.17;;;14.57;;
6121;SDS011;3091;51.506;7.672;2023-05-07T03:19:18;14.90;;;14.30;;
6121;SDS011;3091;51.506;7.672;2023-05-07T03:21:44;14.93;;;14.23;;
6121;SDS011;3091;51.506;7.672;2023-05-07T03:24:10;14.00;;;13.40;;
6121;SDS011;3091;51.506;7.672;2023-05-07T03:26:36;14.10;;;13.50;;
6121;SDS011;3091;51.506;7.672;2023-05-07T03:29:02;14.50;;;13.80;;
6121;SDS011;3091;51.506;7.672;2023-05-07T03:31:28;14.13;;;13.43;;
6121;SDS011;3091;51.506;7.672;2023-05-07T03:33:55;13.80;;;13.20;;
6121;SDS011;3091;51.506;7.672;2023-05-07T03:36:21;13.50;;;13.00;;
6121;SDS011;3091;51.506;7.672;2023-05-07T03:38:47;13.30;;;12.80;;
6121;SDS011;3091;51.506;7.672;2023-05-07T03:41:14;14.30;;;13.70;;
6121;SDS011;3091;51.506;7.672;2023-05-07T03:43:40;13.70;;;13.20;;
6121;SDS011;3091;51.506;7.672;2023-05-07T03:46:06;13.40;;;12.90;;
6121;SDS011;3091;51.506;7.672;2023-05-07T03:48:32;13.47;;;12.87;;
6121;SDS011;3091;51.506;7.672;2023-05-07T03:50:58;12.87;;;12.37;;
6121;SDS011;3091;51.506;7.672;2023-05-07T03:53:24;13.00;;;12.50;;
6121;SDS011;3091;51.506;7.672;2023-05-07T03:55:50;12.83;;;12.33;;
6121;SDS011;3091;51.506;7.672;2023-05-07T03:58:16;13.23;;;12.73;;
6121;SDS011;3091;51.506;7.672;2023-05-07T04:00:45;12.37;;;11.87;;
6121;SDS011;3091;51.506;7.672;2023-05-07T04:03:11;13.83;;;13.23;;
6121;SDS011;3091;51.506;7.672;2023-05-07T04:05:37;12.20;;;11.70;;
6121;SDS011;3091;51.506;7.672;2023-05-07T04:08:03;12.80;;;12.30;;
6121;SDS011;3091;51.506;7.672;2023-05-07T04:10:30;12.40;;;11.90;;
6121;SDS011;3091;51.506;7.672;2023-05-07T04:12:56;12.60;;;12.10;;
6121;SDS011;3091;51.506;7.672;2023-05-07T04:15:23;12.50;;;12.00;;
6121;SDS011;3091;51.506;7.672;2023-05-07T04:17:49;12.50;;;12.00;;
6121;SDS011;3091;51.506;7.672;2023-05-07T04:20:15;13.23;;;12.73;;
6121;SDS011;3091;51.506;7.672;2023-05-07T04:22:41;12.50;;;12.00;;
6121;SDS011;3091;51.506;7.672;2023-05-07T04:25:08;12.50;;;12.00;;
6121;SDS011;3091;51.506;7.672;2023-05-07T04:27:35;12.10;;;11.70;;
6121;SDS011;3091;51.506;7.672;2023-05-07T04:30:03;17.67;;;16.83;;
6121;SDS011;3091;51.506;7.672;2023-05-07T04:32:30;12.77;;;12.27;;
6121;SDS011;3091;51.506;7.672;2023-05-07T04:34:59;12.30;;;11.80;;
6121;SDS011;3091;51.506;7.672;2023-05-07T04:37:25;12.40;;;11.90;;
6121;SDS011;3091;51.506;7.672;2023-05-07T04:39:51;12.80;;;12.30;;
6121;SDS011;3091;51.506;7.672;2023-05-07T04:42:17;13.07;;;12.57;;
6121;SDS011;3091;51.506;7.672;2023-05-07T04:44:44;14.60;;;13.90;;
6121;SDS011;3091;51.506;7.672;2023-05-07T04:47:10;13.40;;;12.90;;
6121;SDS011;3091;51.506;7.672;2023-05-07T04:49:37;13.40;;;12.90;;
6121;SDS011;3091;51.506;7.672;2023-05-07T04:52:03;14.03;;;13.43;;
6121;SDS011;3091;51.506;7.672;2023-05-07T04:54:29;14.83;;;14.23;;
6121;SDS011;3091;51.506;7.672;2023-05-07T04:56:55;15.00;;;14.40;;
6121;SDS011;3091;51.506;7.672;2023-05-07T04:59:21;14.57;;;13.97;;
6121;SDS011;3091;51.506;7.672;2023-05-07T05:01:47;14.73;;;14.13;;
6121;SDS011;3091;51.506;7.672;2023-05-07T05:04:13;14.90;;;14.30;;
6121;SDS011;3091;51.506;7.672;2023-05-07T05:06:39;14.73;;;14.13;;
6121;SDS011;3091;51.506;7.672;2023-05-07T05:09:06;15.00;;;14.40;;
6121;SDS011;3091;51.506;7.672;2023-05-07T05:11:32;17.70;;;16.77;;
6121;SDS011;3091;51.506;7.672;2023-05-07T05:13:59;15.87;;;15.17;;
6121;SDS011;3091;51.506;7.672;2023-05-07T05:16:25;15.93;;;15.23;;
6121;SDS011;3091;51.506;7.672;2023-05-07T05:18:51;16.53;;;15.83;;
6121;SDS011;3091;51.506;7.672;2023-05-07T05:21:19;17.67;;;16.87;;
6121;SDS011;3091;51.506;7.672;2023-05-07T05:23:45;17.80;;;17.10;;
6121;SDS011;3091;51.506;7.672;2023-05-07T05:26:11;17.60;;;16.90;;
6121;SDS011;3091;51.506;7.672;2023-05-07T05:28:37;17.40;;;16.70;;
6121;SDS011;3091;51.506;7.672;2023-05-07T05:31:04;17.10;;;16.40;;
6121;SDS011;3091;51.506;7.672;2023-05-07T05:33:30;17.10;;;16.50;;
6121;SDS011;3091;51.506;7.672;2023-05-07T05:35:56;19.30;;;18.50;;
6121;SDS011;3091;51.506;7.672;2023-05-07T05:38:22;18.30;;;17.60;;
6121;SDS011;3091;51.506;7.672;2023-05-07T05:40:48;17.00;;;16.40;;
6121;SDS011;3091;51.506;7.672;2023-05-07T05:43:14;16.17;;;15.57;;
6121;SDS011;3091;51.506;7.672;2023-05-07T05:45:40;15.47;;;14.97;;
6121;SDS011;3091;51.506;7.672;2023-05-07T05:48:06;15.60;;;15.10;;
6121;SDS011;3091;51.506;7.672;2023-05-07T05:50:33;18.73;;;18.00;;
6121;SDS011;3091;51.506;7.672;2023-05-07T05:53:01;15.50;;;15.00;;
6121;SDS011;3091;51.506;7.672;2023-05-07T05:55:27;15.37;;;14.87;;
6121;SDS011;3091;51.506;7.672;2023-05-07T05:57:53;14.90;;;14.40;;
6121;SDS011;3091;51.506;7.672;2023-05-07T06:00:19;14.80;;;14.30;;
6121;SDS011;3091;51.506;7.672;2023-05-07T06:02:47;15.23;;;14.63;;
6121;SDS011;3091;51.506;7.672;2023-05-07T06:05:13;13.80;;;13.30;;
6121;SDS011;3091;51.506;7.672;2023-05-07T06:07:40;15.00;;;14.40;;
6121;SDS011;3091;51.506;7.672;2023-05-07T06:10:06;13.97;;;13.47;;
6121;SDS011;3091;51.506;7.672;2023-05-07T06:12:32;13.83;;;13.33;;
6121;SDS011;3091;51.506;7.672;2023-05-07T06:14:58;14.03;;;13.57;;
6121;SDS011;3091;51.506;7.672;2023-05-07T06:17:24;13.90;;;13.40;;
6121;SDS011;3091;51.506;7.672;2023-05-07T06:19:51;12.80;;;12.40;;
6121;SDS011;3091;51.506;7.672;2023-05-07T06:22:17;12.40;;;12.00;;
6121;SDS011;3091;51.506;7.672;2023-05-07T06:24:43;12.10;;;11.70;;
6121;SDS011;3091;51.506;7.672;2023-05-07T06:27:09;12.00;;;11.60;;
6121;SDS011;3091;51.506;7.672;2023-05-07T06:29:35;11.80;;;11.40;;
6121;SDS011;3091;51.506;7.672;2023-05-07T06:32:10;12.03;;;11.63;;
6121;SDS011;3091;51.506;7.672;2023-05-07T06:34:37;11.50;;;11.10;;
6121;SDS011;3091;51.506;7.672;2023-05-07T06:37:03;11.50;;;11.20;;
6121;SDS011;3091;51.506;7.672;2023-05-07T06:39:29;12.20;;;11.80;;
6121;SDS011;3091;51.506;7.672;2023-05-07T06:41:55;11.80;;;11.40;;
6121;SDS011;3091;51.506;7.672;2023-05-07T06:44:21;10.93;;;10.63;;
6121;SDS011;3091;51.506;7.672;2023-05-07T06:46:47;11.17;;;10.87;;
6121;SDS011;3091;51.506;7.672;2023-05-07T06:49:13;11.50;;;11.17;;
6121;SDS011;3091;51.506;7.672;2023-05-07T06:51:42;12.90;;;12.50;;
6121;SDS011;3091;51.506;7.672;2023-05-07T06:54:08;15.40;;;14.70;;
6121;SDS011;3091;51.506;7.672;2023-05-07T06:56:34;12.50;;;12.10;;
6121;SDS011;3091;51.506;7.672;2023-05-07T06:59:01;13.23;;;12.83;;
6121;SDS011;3091;51.506;7.672;2023-05-07T07:01:27;13.63;;;13.23;;
6121;SDS011;3091;51.506;7.672;2023-05-07T07:03:53;13.57;;;12.97;;
6121;SDS011;3091;51.506;7.672;2023-05-07T07:06:19;13.07;;;12.67;;
6121;SDS011;3091;51.506;7.672;2023-05-07T07:08:45;13.30;;;12.90;;
6121;SDS011;3091;51.506;7.672;2023-05-07T07:11:11;13.60;;;13.20;;
6121;SDS011;3091;51.506;7.672;2023-05-07T07:13:37;13.60;;;13.20;;
6121;SDS011;3091;51.506;7.672;2023-05-07T07:16:05;12.83;;;12.43;;
6121;SDS011;3091;51.506;7.672;2023-05-07T07:18:33;13.40;;;13.00;;
6121;SDS011;3091;51.506;7.672;2023-05-07T07:21:00;14.07;;;13.57;;
6121;SDS011;3091;51.506;7.672;2023-05-07T07:23:26;13.27;;;12.87;;
6121;SDS011;3091;51.506;7.672;2023-05-07T07:25:55;13.33;;;12.83;;
6121;SDS011;3091;51.506;7.672;2023-05-07T07:28:21;12.90;;;12.50;;
6121;SDS011;3091;51.506;7.672;2023-05-07T07:30:47;12.60;;;12.20;;
6121;SDS011;3091;51.506;7.672;2023-05-07T07:33:13;13.50;;;13.10;;
6121;SDS011;3091;51.506;7.672;2023-05-07T07:35:39;13.70;;;13.20;;
6121;SDS011;3091;51.506;7.672;2023-05-07T07:38:05;13.13;;;12.73;;
6121;SDS011;3091;51.506;7.672;2023-05-07T07:40:31;13.63;;;12.93;;
6121;SDS011;3091;51.506;7.672;2023-05-07T07:42:57;13.73;;;13.23;;
6121;SDS011;3091;51.506;7.672;2023-05-07T07:45:24;13.20;;;12.80;;
6121;SDS011;3091;51.506;7.672;2023-05-07T07:47:50;13.23;;;12.83;;
6121;SDS011;3091;51.506;7.672;2023-05-07T07:50:16;12.80;;;12.40;;
6121;SDS011;3091;51.506;7.672;2023-05-07T07:52:44;12.20;;;11.80;;
6121;SDS011;3091;51.506;7.672;2023-05-07T07:55:13;12.77;;;12.30;;
6121;SDS011;3091;51.506;7.672;2023-05-07T07:57:45;12.10;;;11.70;;
6121;SDS011;3091;51.506;7.672;2023-05-07T08:00:11;12.50;;;12.10;;
6121;SDS011;3091;51.506;7.672;2023-05-07T08:02:37;12.33;;;11.90;;
6121;SDS011;3091;51.506;7.672;2023-05-07T08:05:03;12.43;;;12.03;;
6121;SDS011;3091;51.506;7.672;2023-05-07T08:07:29;11.90;;;11.50;;
6121;SDS011;3091;51.506;7.672;2023-05-07T08:09:56;13.23;;;12.73;;
6121;SDS011;3091;51.506;7.672;2023-05-07T08:12:22;11.17;;;10.77;;
6121;SDS011;3091;51.506;7.672;2023-05-07T08:14:48;11.27;;;10.87;;
6121;SDS011;3091;51.506;7.672;2023-05-07T08:17:14;12.60;;;12.10;;
6121;SDS011;3091;51.506;7.672;2023-05-07T08:19:41;12.57;;;12.07;;
6121;SDS011;3091;51.506;7.672;2023-05-07T08:22:07;11.43;;;11.03;;
6121;SDS011;3091;51.506;7.672;2023-05-07T08:24:35;11.97;;;11.57;;
6121;SDS011;3091;51.506;7.672;2023-05-07T08:27:02;11.03;;;10.73;;
6121;SDS011;3091;51.506;7.672;2023-05-07T08:29:28;15.03;;;14.23;;
6121;SDS011;3091;51.506;7.672;2023-05-07T08:31:54;11.00;;;10.70;;
6121;SDS011;3091;51.506;7.672;2023-05-07T08:34:21;14.37;;;13.57;;
6121;SDS011;3091;51.506;7.672;2023-05-07T08:36:47;11.70;;;11.30;;
6121;SDS011;3091;51.506;7.672;2023-05-07T08:39:13;13.23;;;12.63;;
6121;SDS011;3091;51.506;7.672;2023-05-07T08:41:39;11.47;;;11.07;;
6121;SDS011;3091;51.506;7.672;2023-05-07T08:44:06;12.17;;;11.73;;
6121;SDS011;3091;51.506;7.672;2023-05-07T08:46:37;10.97;;;10.67;;
6121;SDS011;3091;51.506;7.672;2023-05-07T08:49:03;11.77;;;11.30;;
6121;SDS011;3091;51.506;7.672;2023-05-07T08:51:29;11.10;;;10.80;;
6121;SDS011;3091;51.506;7.672;2023-05-07T08:53:56;11.30;;;11.00;;
6121;SDS011;3091;51.506;7.672;2023-05-07T08:56:22;12.43;;;11.90;;
6121;SDS011;3091;51.506;7.672;2023-05-07T08:58:48;10.80;;;10.50;;
6121;SDS011;3091;51.506;7.672;2023-05-07T09:01:15;10.70;;;10.40;;
6121;SDS011;3091;51.506;7.672;2023-05-07T09:03:43;11.47;;;11.07;;
6121;SDS011;3091;51.506;7.672;2023-05-07T09:06:10;11.73;;;11.37;;
6121;SDS011;3091;51.506;7.672;2023-05-07T09:08:36;13.33;;;12.73;;
6121;SDS011;3091;51.506;7.672;2023-05-07T09:11:02;14.93;;;14.13;;
6121;SDS011;3091;51.506;7.672;2023-05-07T09:13:28;11.73;;;11.33;;
6121;SDS011;3091;51.506;7.672;2023-05-07T09:15:55;11.20;;;10.80;;
6121;SDS011;3091;51.506;7.672;2023-05-07T09:18:23;11.77;;;11.37;;
6121;SDS011;3091;51.506;7.672;2023-05-07T09:20:50;10.70;;;10.40;;
6121;SDS011;3091;51.506;7.672;2023-05-07T09:23:16;12.00;;;11.50;;
6121;SDS011;3091;51.506;7.672;2023-05-07T09:25:42;13.13;;;12.53;;
6121;SDS011;3091;51.506;7.672;2023-05-07T09:28:08;11.80;;;11.40;;
6121;SDS011;3091;51.506;7.672;2023-05-07T09:30:35;10.20;;;9.90;;
6121;SDS011;3091;51.506;7.672;2023-05-07T09:33:03;13.33;;;12.73;;
6121;SDS011;3091;51.506;7.672;2023-05-07T09:35:29;11.40;;;11.00;;
6121;SDS011;3091;51.506;7.672;2023-05-07T09:37:56;11.70;;;11.30;;
6121;SDS011;3091;51.506;7.672;2023-05-07T09:40:27;11.07;;;10.67;;
6121;SDS011;3091;51.506;7.672;2023-05-07T09:42:54;11.40;;;11.00;;
6121;SDS011;3091;51.506;7.672;2023-05-07T09:45:26;11.30;;;10.90;;
6121;SDS011;3091;51.506;7.672;2023-05-07T09:47:56;11.00;;;10.60;;
6121;SDS011;3091;51.506;7.672;2023-05-07T09:50:30;11.53;;;11.10;;
6121;SDS011;3091;51.506;7.672;2023-05-07T09:52:58;10.50;;;10.20;;
6121;SDS011;3091;51.506;7.672;2023-05-07T09:55:24;10.90;;;10.60;;
6121;SDS011;3091;51.506;7.672;2023-05-07T09:57:51;13.77;;;13.17;;
6121;SDS011;3091;51.506;7.672;2023-05-07T10:00:18;12.83;;;12.33;;
6121;SDS011;3091;51.506;7.672;2023-05-07T10:02:47;11.00;;;10.60;;
6121;SDS011;3091;51.506;7.672;2023-05-07T10:05:14;12.83;;;12.33;;
6121;SDS011;3091;51.506;7.672;2023-05-07T10:07:41;11.10;;;10.73;;
6121;SDS011;3091;51.506;7.672;2023-05-07T10:10:07;13.17;;;12.47;;
6121;SDS011;3091;51.506;7.672;2023-05-07T10:12:33;11.27;;;10.87;;
6121;SDS011;3091;51.506;7.672;2023-05-07T10:15:06;12.20;;;11.70;;
6121;SDS011;3091;51.506;7.672;2023-05-07T10:17:36;11.57;;;11.03;;
6121;SDS011;3091;51.506;7.672;2023-05-07T10:20:03;11.40;;;11.00;;
6121;SDS011;3091;51.506;7.672;2023-05-07T10:22:30;11.10;;;10.70;;
6121;SDS011;3091;51.506;7.672;2023-05-07T10:24:59;12.23;;;11.63;;
6121;SDS011;3091;51.506;7.672;2023-05-07T10:27:28;10.43;;;10.13;;
6121;SDS011;3091;51.506;7.672;2023-05-07T10:34:53;11.20;;;10.83;;
6121;SDS011;3091;51.506;7.672;2023-05-07T10:37:20;12.60;;;12.10;;
6121;SDS011;3091;51.506;7.672;2023-05-07T10:39:46;10.90;;;10.50;;
6121;SDS011;3091;51.506;7.672;2023-05-07T10:42:13;9.87;;;9.57;;
6121;SDS011;3091;51.506;7.672;2023-05-07T10:44:39;12.27;;;11.70;;
6121;SDS011;3091;51.506;7.672;2023-05-07T10:47:06;9.90;;;9.50;;
6121;SDS011;3091;51.506;7.672;2023-05-07T10:49:34;11.07;;;10.57;;
6121;SDS011;3091;51.506;7.672;2023-05-07T10:52:17;10.93;;;10.63;;
6121;SDS011;3091;51.506;7.672;2023-05-07T10:54:43;15.67;;;14.60;;
6121;SDS011;3091;51.506;7.672;2023-05-07T10:59:56;10.07;;;9.77;;
6121;SDS011;3091;51.506;7.672;2023-05-07T11:02:22;10.07;;;9.77;;
6121;SDS011;3091;51.506;7.672;2023-05-07T11:07:33;10.20;;;9.90;;
6121;SDS011;3091;51.506;7.672;2023-05-07T11:09:59;11.20;;;10.80;;
6121;SDS011;3091;51.506;7.672;2023-05-07T11:15:10;10.80;;;10.40;;
6121;SDS011;3091;51.506;7.672;2023-05-07T11:17:52;11.40;;;10.83;;
6121;SDS011;3091;51.506;7.672;2023-05-07T11:20:19;12.17;;;11.53;;
6121;SDS011;3091;51.506;7.672;2023-05-07T11:22:45;11.90;;;11.43;;
6121;SDS011;3091;51.506;7.672;2023-05-07T11:25:14;10.40;;;9.90;;
6121;SDS011;3091;51.506;7.672;2023-05-07T11:27:43;10.87;;;10.57;;
6121;SDS011;3091;51.506;7.672;2023-05-07T11:30:09;12.80;;;11.80;;
6121;SDS011;3091;51.506;7.672;2023-05-07T11:32:35;10.73;;;10.33;;
6121;SDS011;3091;51.506;7.672;2023-05-07T11:35:02;11.17;;;10.77;;
6121;SDS011;3091;51.506;7.672;2023-05-07T11:37:28;10.50;;;10.20;;
6121;SDS011;3091;51.506;7.672;2023-05-07T11:40:04;11.97;;;11.50;;
6121;SDS011;3091;51.506;7.672;2023-05-07T11:42:38;10.63;;;10.33;;
6121;SDS011;3091;51.506;7.672;2023-05-07T11:45:05;11.03;;;10.60;;
6121;SDS011;3091;51.506;7.672;2023-05-07T11:47:31;11.47;;;11.00;;
6121;SDS011;3091;51.506;7.672;2023-05-07T11:50:02;11.67;;;11.27;;
6121;SDS011;3091;51.506;7.672;2023-05-07T11:52:28;13.30;;;12.60;;
6121;SDS011;3091;51.506;7.672;2023-05-07T11:54:55;11.23;;;10.80;;
6121;SDS011;3091;51.506;7.672;2023-05-07T11:57:22;13.40;;;12.70;;
6121;SDS011;3091;51.506;7.672;2023-05-07T11:59:52;11.63;;;11.23;;
6121;SDS011;3091;51.506;7.672;2023-05-07T12:02:18;11.20;;;10.80;;
6121;SDS011;3091;51.506;7.672;2023-05-07T12:04:44;10.27;;;9.97;;
6121;SDS011;3091;51.506;7.672;2023-05-07T12:07:13;10.63;;;10.23;;
6121;SDS011;3091;51.506;7.672;2023-05-07T12:09:40;12.10;;;11.60;;
6121;SDS011;3091;51.506;7.672;2023-05-07T12:12:06;10.53;;;10.23;;
6121;SDS011;3091;51.506;7.672;2023-05-07T12:14:32;12.83;;;12.23;;
6121;SDS011;3091;51.506;7.672;2023-05-07T12:16:59;10.20;;;9.90;;
6121;SDS011;3091;51.506;7.672;2023-05-07T12:19:28;13.00;;;12.23;;
6121;SDS011;3091;51.506;7.672;2023-05-07T12:21:54;10.50;;;10.20;;
6121;SDS011;3091;51.506;7.672;2023-05-07T12:24:21;10.67;;;10.37;;
6121;SDS011;3091;51.506;7.672;2023-05-07T12:26:47;11.50;;;11.10;;
6121;SDS011;3091;51.506;7.672;2023-05-07T12:29:14;10.60;;;10.30;;
6121;SDS011;3091;51.506;7.672;2023-05-07T12:31:41;12.50;;;11.90;;
6121;SDS011;3091;51.506;7.672;2023-05-07T12:34:07;12.17;;;11.57;;
6121;SDS011;3091;51.506;7.672;2023-05-07T12:36:36;11.33;;;10.63;;
6121;SDS011;3091;51.506;7.672;2023-05-07T12:39:04;12.70;;;12.10;;
6121;SDS011;3091;51.506;7.672;2023-05-07T12:41:30;10.80;;;10.50;;
6121;SDS011;3091;51.506;7.672;2023-05-07T12:43:56;10.83;;;10.53;;
6121;SDS011;3091;51.506;7.672;2023-05-07T12:46:23;12.30;;;11.80;;
6121;SDS011;3091;51.506;7.672;2023-05-07T12:48:49;10.67;;;10.37;;
6121;SDS011;3091;51.506;7.672;2023-05-07T12:51:15;11.90;;;11.50;;
6121;SDS011;3091;51.506;7.672;2023-05-07T12:53:41;10.70;;;10.40;;
6121;SDS011;3091;51.506;7.672;2023-05-07T12:56:08;12.10;;;11.70;;
6121;SDS011;3091;51.506;7.672;2023-05-07T12:58:35;10.80;;;10.50;;
6121;SDS011;3091;51.506;7.672;2023-05-07T13:01:04;10.87;;;10.53;;
6121;SDS011;3091;51.506;7.672;2023-05-07T13:03:31;11.60;;;11.20;;
6121;SDS011;3091;51.506;7.672;2023-05-07T13:06:02;10.77;;;10.47;;
6121;SDS011;3091;51.506;7.672;2023-05-07T13:08:29;11.97;;;11.30;;
6121;SDS011;3091;51.506;7.672;2023-05-07T13:10:56;11.83;;;11.43;;
6121;SDS011;3091;51.506;7.672;2023-05-07T13:13:22;13.00;;;12.30;;
6121;SDS011;3091;51.506;7.672;2023-05-07T13:15:48;10.90;;;10.50;;
6121;SDS011;3091;51.506;7.672;2023-05-07T13:18:14;11.10;;;10.70;;
6121;SDS011;3091;51.506;7.672;2023-05-07T13:20:40;12.43;;;11.83;;
6121;SDS011;3091;51.506;7.672;2023-05-07T13:23:09;12.63;;;12.13;;
6121;SDS011;3091;51.506;7.672;2023-05-07T13:25:35;12.20;;;11.70;;
6121;SDS011;3091;51.506;7.672;2023-05-07T13:28:01;12.10;;;11.60;;
6121;SDS011;3091;51.506;7.672;2023-05-07T13:30:27;12.70;;;12.17;;
6121;SDS011;3091;51.506;7.672;2023-05-07T13:32:56;14.97;;;13.90;;
6121;SDS011;3091;51.506;7.672;2023-05-07T13:35:22;12.57;;;12.10;;
6121;SDS011;3091;51.506;7.672;2023-05-07T13:37:48;12.70;;;12.30;;
6121;SDS011;3091;51.506;7.672;2023-05-07T13:40:14;12.13;;;11.63;;
6121;SDS011;3091;51.506;7.672;2023-05-07T13:42:40;11.40;;;11.03;;
6121;SDS011;3091;51.506;7.672;2023-05-07T13:45:06;11.23;;;10.83;;
6121;SDS011;3091;51.506;7.672;2023-05-07T13:47:33;11.27;;;10.90;;
6121;SDS011;3091;51.506;7.672;2023-05-07T13:49:59;11.80;;;11.40;;
6121;SDS011;3091;51.506;7.672;2023-05-07T13:52:25;11.10;;;10.80;;
6121;SDS011;3091;51.506;7.672;2023-05-07T13:54:51;11.13;;;10.83;;
6121;SDS011;3091;51.506;7.672;2023-05-07T13:57:17;11.20;;;10.90;;
6121;SDS011;3091;51.506;7.672;2023-05-07T13:59:46;13.57;;;12.93;;
6121;SDS011;3091;51.506;7.672;2023-05-07T14:02:12;11.83;;;11.43;;
6121;SDS011;3091;51.506;7.672;2023-05-07T14:04:38;11.90;;;11.50;;
6121;SDS011;3091;51.506;7.672;2023-05-07T14:07:04;12.57;;;12.17;;
6121;SDS011;3091;51.506;7.672;2023-05-07T14:09:30;12.10;;;11.70;;
6121;SDS011;3091;51.506;7.672;2023-05-07T14:11:56;13.70;;;13.20;;
6121;SDS011;3091;51.506;7.672;2023-05-07T14:14:22;12.20;;;11.80;;
6121;SDS011;3091;51.506;7.672;2023-05-07T14:16:48;12.67;;;12.27;;
6121;SDS011;3091;51.506;7.672;2023-05-07T14:19:14;13.50;;;12.80;;
6121;SDS011;3091;51.506;7.672;2023-05-07T14:21:43;13.23;;;12.73;;
6121;SDS011;3091;51.506;7.672;2023-05-07T14:24:09;12.30;;;11.90;;
6121;SDS011;3091;51.506;7.672;2023-05-07T14:26:36;13.00;;;12.50;;
6121;SDS011;3091;51.506;7.672;2023-05-07T14:29:02;12.60;;;12.20;;
6121;SDS011;3091;51.506;7.672;2023-05-07T14:31:28;12.67;;;12.27;;
6121;SDS011;3091;51.506;7.672;2023-05-07T14:33:55;13.63;;;13.03;;
6121;SDS011;3091;51.506;7.672;2023-05-07T14:36:22;12.77;;;12.37;;
6121;SDS011;3091;51.506;7.672;2023-05-07T14:38:51;13.10;;;12.70;;
6121;SDS011;3091;51.506;7.672;2023-05-07T14:41:18;13.30;;;12.90;;
6121;SDS011;3091;51.506;7.672;2023-05-07T14:43:45;14.13;;;13.53;;
6121;SDS011;3091;51.506;7.672;2023-05-07T14:46:15;13.87;;;13.37;;
6121;SDS011;3091;51.506;7.672;2023-05-07T14:48:41;12.57;;;11.97;;
6121;SDS011;3091;51.506;7.672;2023-05-07T14:51:07;12.37;;;11.97;;
6121;SDS011;3091;51.506;7.672;2023-05-07T14:53:33;11.50;;;11.20;;
6121;SDS011;3091;51.506;7.672;2023-05-07T14:55:59;11.80;;;11.40;;
6121;SDS011;3091;51.506;7.672;2023-05-07T14:58:25;11.40;;;11.10;;